createdAt,value
2022-12-08T04:43:47.990Z,35.57
2022-12-08T04:58:52.378Z,30.77
2022-12-08T05:13:56.817Z,27.67
2022-12-08T05:29:01.188Z,33.03
2022-12-08T05:44:05.686Z,33.47
2022-12-08T05:59:10.342Z,31.93
2022-12-08T06:14:14.849Z,30.87
2022-12-08T06:29:19.399Z,23.20
2022-12-08T06:44:23.956Z,16.13
2022-12-08T06:59:28.516Z,14.97
2022-12-08T07:14:33.112Z,15.80
2022-12-08T07:29:37.582Z,18.27
2022-12-08T07:44:42.031Z,16.07
2022-12-08T07:59:46.454Z,17.53
2022-12-08T08:14:50.977Z,21.67
2022-12-08T08:29:55.518Z,21.27
2022-12-08T08:44:59.988Z,19.73
2022-12-08T09:00:06.408Z,19.40
2022-12-08T09:15:12.178Z,23.67
2022-12-08T09:30:17.656Z,17.90
2022-12-08T09:45:24.166Z,18.33
2022-12-08T10:00:29.577Z,16.57
2022-12-08T10:15:45.228Z,12.53
2022-12-08T10:30:49.654Z,10.93
2022-12-08T10:45:54.256Z,12.97
2022-12-08T11:01:01.761Z,11.97
2022-12-08T11:16:07.610Z,12.47
2022-12-08T11:31:23.546Z,12.90
2022-12-08T11:46:33.713Z,13.77
2022-12-08T12:01:42.532Z,13.80
2022-12-08T12:17:04.071Z,13.93
2022-12-08T12:32:11.304Z,15.77
2022-12-08T12:47:50.883Z,14.37
2022-12-08T13:02:59.483Z,16.25
2022-12-08T13:18:04.798Z,13.97
2022-12-08T13:33:18.499Z,14.63
2022-12-08T13:49:31.950Z,19.27
2022-12-08T14:19:24.315Z,15.20
2022-12-08T14:34:28.884Z,15.97
2022-12-08T14:49:38.749Z,17.83
2022-12-08T15:04:46.003Z,20.57
2022-12-08T15:19:58.524Z,19.00
2022-12-08T15:35:03.017Z,19.27
2022-12-08T15:50:15.308Z,18.33
2022-12-08T16:36:12.224Z,20.23
2022-12-08T16:51:26.537Z,19.57
2022-12-08T17:06:31.566Z,19.57
2022-12-08T17:21:36.298Z,23.77
2022-12-08T17:36:40.822Z,28.97
2022-12-08T17:51:47.293Z,32.17
2022-12-08T18:06:51.738Z,36.97
2022-12-08T18:21:56.113Z,41.27
2022-12-08T18:37:00.902Z,39.77
2022-12-08T18:52:06.087Z,37.83
2022-12-08T19:07:10.710Z,38.10
2022-12-08T19:22:15.152Z,34.50
2022-12-08T19:37:19.667Z,36.53
2022-12-08T19:52:24.230Z,37.50
2022-12-08T20:07:28.629Z,36.27
2022-12-08T20:22:33.102Z,29.47
2022-12-08T20:37:37.545Z,26.20
2022-12-08T20:52:42.125Z,34.53
2022-12-08T21:07:46.721Z,45.80
